sensor_id;sensor_type;location;lat;lon;timestamp;pressure;altitude;pressure_sealevel;temperature;humidity
19594;BME280;9944;48.240;16.478;2024-02-23T00:03:20;97783.53;;;8.43;72.65
19594;BME280;9944;48.240;16.478;2024-02-23T00:07:24;97766.06;;;8.42;72.46
19594;BME280;9944;48.240;16.478;2024-02-23T00:11:28;97763.47;;;8.40;72.54
19594;BME280;9944;48.240;16.478;2024-02-23T00:15:32;97771.41;;;8.39;72.56
19594;BME280;9944;48.240;16.478;2024-02-23T00:19:35;97763.56;;;8.37;72.75
19594;BME280;9944;48.240;16.478;2024-02-23T00:23:38;97774.16;;;8.34;73.25
19594;BME280;9944;48.240;16.478;2024-02-23T00:27:42;97762.78;;;8.33;73.68
19594;BME280;9944;48.240;16.478;2024-02-23T00:31:46;97761.03;;;8.32;73.63
19594;BME280;9944;48.240;16.478;2024-02-23T00:35:49;97749.69;;;8.32;73.91
19594;BME280;9944;48.240;16.478;2024-02-23T00:39:52;97758.41;;;8.31;74.02
19594;BME280;9944;48.240;16.478;2024-02-23T00:43:56;97747.91;;;8.31;73.98
19594;BME280;9944;48.240;16.478;2024-02-23T00:47:59;97763.69;;;8.31;74.25
19594;BME280;9944;48.240;16.478;2024-02-23T00:52:03;97750.56;;;8.29;74.48
19594;BME280;9944;48.240;16.478;2024-02-23T00:56:07;97745.47;;;8.25;74.07
19594;BME280;9944;48.240;16.478;2024-02-23T01:00:11;97756.09;;;8.20;74.24
19594;BME280;9944;48.240;16.478;2024-02-23T01:04:15;97751.81;;;8.17;74.27
19594;BME280;9944;48.240;16.478;2024-02-23T01:08:19;97756.28;;;8.14;74.29
19594;BME280;9944;48.240;16.478;2024-02-23T01:12:22;97758.06;;;8.12;74.27
19594;BME280;9944;48.240;16.478;2024-02-23T01:16:26;97765.13;;;8.10;74.59
19594;BME280;9944;48.240;16.478;2024-02-23T01:20:30;97756.34;;;8.11;75.13
19594;BME280;9944;48.240;16.478;2024-02-23T01:24:33;97747.53;;;8.12;74.99
19594;BME280;9944;48.240;16.478;2024-02-23T01:28:36;97747.63;;;8.10;75.13
19594;BME280;9944;48.240;16.478;2024-02-23T01:32:40;97752.03;;;8.08;75.34
19594;BME280;9944;48.240;16.478;2024-02-23T01:36:44;97753.75;;;8.09;75.29
19594;BME280;9944;48.240;16.478;2024-02-23T01:40:47;97767.78;;;8.08;75.50
19594;BME280;9944;48.240;16.478;2024-02-23T01:44:50;97763.38;;;8.10;75.43
19594;BME280;9944;48.240;16.478;2024-02-23T01:48:55;97752.13;;;8.05;75.23
19594;BME280;9944;48.240;16.478;2024-02-23T01:53:00;97753.09;;;8.01;75.59
19594;BME280;9944;48.240;16.478;2024-02-23T01:57:04;97750.47;;;8.01;75.65
19594;BME280;9944;48.240;16.478;2024-02-23T02:01:27;97748.66;;;8.03;75.41
19594;BME280;9944;48.240;16.478;2024-02-23T02:05:32;97747.78;;;8.04;75.71
19594;BME280;9944;48.240;16.478;2024-02-23T02:09:35;97749.56;;;8.02;75.71
19594;BME280;9944;48.240;16.478;2024-02-23T02:13:39;97740.84;;;8.02;75.73
19594;BME280;9944;48.240;16.478;2024-02-23T02:17:42;97748.75;;;8.00;75.57
19594;BME280;9944;48.240;16.478;2024-02-23T02:21:47;97747.09;;;7.96;75.89
19594;BME280;9944;48.240;16.478;2024-02-23T02:25:54;97752.44;;;7.93;76.01
19594;BME280;9944;48.240;16.478;2024-02-23T02:29:58;97753.38;;;7.90;76.03
19594;BME280;9944;48.240;16.478;2024-02-23T02:34:01;97766.56;;;7.89;75.57
19594;BME280;9944;48.240;16.478;2024-02-23T02:38:07;97771.81;;;7.89;75.72
19594;BME280;9944;48.240;16.478;2024-02-23T02:42:12;97782.31;;;7.89;76.17
19594;BME280;9944;48.240;16.478;2024-02-23T02:46:15;97783.34;;;7.83;76.02
19594;BME280;9944;48.240;16.478;2024-02-23T02:50:19;97786.00;;;7.82;76.44
19594;BME280;9944;48.240;16.478;2024-02-23T02:54:25;97781.56;;;7.84;76.69
19594;BME280;9944;48.240;16.478;2024-02-23T02:58:28;97789.38;;;7.87;76.92
19594;BME280;9944;48.240;16.478;2024-02-23T03:02:31;97806.88;;;7.88;76.77
19594;BME280;9944;48.240;16.478;2024-02-23T03:06:35;97813.13;;;7.82;76.67
19594;BME280;9944;48.240;16.478;2024-02-23T03:10:40;97821.22;;;7.74;76.73
19594;BME280;9944;48.240;16.478;2024-02-23T03:14:43;97817.75;;;7.72;77.26
19594;BME280;9944;48.240;16.478;2024-02-23T03:18:47;97823.00;;;7.72;77.53
19594;BME280;9944;48.240;16.478;2024-02-23T03:22:51;97829.97;;;7.73;77.85
19594;BME280;9944;48.240;16.478;2024-02-23T03:26:56;97824.66;;;7.76;77.79
19594;BME280;9944;48.240;16.478;2024-02-23T03:31:00;97833.41;;;7.75;77.97
19594;BME280;9944;48.240;16.478;2024-02-23T03:35:03;97828.28;;;7.72;77.81
19594;BME280;9944;48.240;16.478;2024-02-23T03:39:07;97837.03;;;7.71;77.96
19594;BME280;9944;48.240;16.478;2024-02-23T03:43:12;97851.03;;;7.72;78.22
19594;BME280;9944;48.240;16.478;2024-02-23T03:47:15;97878.16;;;7.72;78.35
19594;BME280;9944;48.240;16.478;2024-02-23T03:51:19;97914.16;;;7.69;78.12
19594;BME280;9944;48.240;16.478;2024-02-23T03:55:22;97950.25;;;7.57;78.85
19594;BME280;9944;48.240;16.478;2024-02-23T03:59:27;97955.72;;;7.48;78.64
19594;BME280;9944;48.240;16.478;2024-02-23T04:03:31;97961.88;;;7.46;78.95
19594;BME280;9944;48.240;16.478;2024-02-23T04:07:34;97967.13;;;7.46;79.38
19594;BME280;9944;48.240;16.478;2024-02-23T04:11:38;97978.44;;;7.49;79.55
19594;BME280;9944;48.240;16.478;2024-02-23T04:15:43;98033.53;;;7.51;79.83
19594;BME280;9944;48.240;16.478;2024-02-23T04:19:46;98035.34;;;7.49;79.39
19594;BME280;9944;48.240;16.478;2024-02-23T04:23:50;98036.31;;;7.45;79.69
19594;BME280;9944;48.240;16.478;2024-02-23T04:27:53;98044.22;;;7.43;80.41
19594;BME280;9944;48.240;16.478;2024-02-23T04:31:59;98042.38;;;7.47;80.29
19594;BME280;9944;48.240;16.478;2024-02-23T04:36:03;98041.53;;;7.46;80.46
19594;BME280;9944;48.240;16.478;2024-02-23T04:40:08;98047.63;;;7.47;80.80
19594;BME280;9944;48.240;16.478;2024-02-23T04:44:13;98050.25;;;7.48;81.17
19594;BME280;9944;48.240;16.478;2024-02-23T04:48:17;98046.66;;;7.51;80.70
19594;BME280;9944;48.240;16.478;2024-02-23T04:52:21;98056.22;;;7.55;80.61
19594;BME280;9944;48.240;16.478;2024-02-23T04:56:24;98061.50;;;7.55;80.64
19594;BME280;9944;48.240;16.478;2024-02-23T05:00:28;98054.50;;;7.54;80.79
19594;BME280;9944;48.240;16.478;2024-02-23T05:04:36;98071.91;;;7.58;80.33
19594;BME280;9944;48.240;16.478;2024-02-23T05:08:40;98068.41;;;7.59;80.40
19594;BME280;9944;48.240;16.478;2024-02-23T05:12:43;98087.66;;;7.58;80.45
19594;BME280;9944;48.240;16.478;2024-02-23T05:16:47;98080.66;;;7.60;79.84
19594;BME280;9944;48.240;16.478;2024-02-23T05:20:52;98096.41;;;7.60;79.67
19594;BME280;9944;48.240;16.478;2024-02-23T05:24:56;98089.41;;;7.59;79.99
19594;BME280;9944;48.240;16.478;2024-02-23T05:28:59;98084.09;;;7.62;79.61
19594;BME280;9944;48.240;16.478;2024-02-23T05:33:03;98089.25;;;7.65;79.32
19594;BME280;9944;48.240;16.478;2024-02-23T05:37:08;98083.97;;;7.68;78.92
19594;BME280;9944;48.240;16.478;2024-02-23T05:41:13;98097.91;;;7.70;79.05
19594;BME280;9944;48.240;16.478;2024-02-23T05:45:16;98110.16;;;7.71;78.64
19594;BME280;9944;48.240;16.478;2024-02-23T05:49:19;98114.50;;;7.74;78.24
19594;BME280;9944;48.240;16.478;2024-02-23T05:53:24;98127.59;;;7.75;78.53
19594;BME280;9944;48.240;16.478;2024-02-23T05:57:28;98122.31;;;7.77;78.57
19594;BME280;9944;48.240;16.478;2024-02-23T06:01:31;98129.28;;;7.79;78.30
19594;BME280;9944;48.240;16.478;2024-02-23T06:05:35;98139.78;;;7.79;78.21
19594;BME280;9944;48.240;16.478;2024-02-23T06:09:39;98143.28;;;7.80;77.89
19594;BME280;9944;48.240;16.478;2024-02-23T06:13:43;98149.41;;;7.79;77.40
19594;BME280;9944;48.240;16.478;2024-02-23T06:17:46;98156.38;;;7.82;76.65
19594;BME280;9944;48.240;16.478;2024-02-23T06:21:50;98172.06;;;7.86;76.43
19594;BME280;9944;48.240;16.478;2024-02-23T06:25:55;98169.34;;;7.89;75.78
19594;BME280;9944;48.240;16.478;2024-02-23T06:29:58;98172.88;;;7.90;75.68
19594;BME280;9944;48.240;16.478;2024-02-23T06:34:02;98166.69;;;7.91;75.11
19594;BME280;9944;48.240;16.478;2024-02-23T06:38:05;98179.78;;;7.94;74.89
19594;BME280;9944;48.240;16.478;2024-02-23T06:42:12;98179.78;;;7.94;74.83
19594;BME280;9944;48.240;16.478;2024-02-23T06:46:15;98183.25;;;7.96;74.74
19594;BME280;9944;48.240;16.478;2024-02-23T06:50:21;98195.53;;;7.94;74.81
19594;BME280;9944;48.240;16.478;2024-02-23T06:54:24;98192.94;;;7.92;74.28
19594;BME280;9944;48.240;16.478;2024-02-23T06:58:29;98199.06;;;7.93;75.11
19594;BME280;9944;48.240;16.478;2024-02-23T07:02:33;98198.19;;;7.94;74.90
19594;BME280;9944;48.240;16.478;2024-02-23T07:06:39;98199.94;;;7.93;74.84
19594;BME280;9944;48.240;16.478;2024-02-23T07:10:43;98205.16;;;7.96;74.81
19594;BME280;9944;48.240;16.478;2024-02-23T07:14:49;98204.22;;;7.99;75.21
19594;BME280;9944;48.240;16.478;2024-02-23T07:18:52;98214.53;;;8.08;75.68
19594;BME280;9944;48.240;16.478;2024-02-23T07:22:56;98222.91;;;8.29;75.53
19594;BME280;9944;48.240;16.478;2024-02-23T07:27:00;98234.25;;;8.32;75.35
19594;BME280;9944;48.240;16.478;2024-02-23T07:31:05;98241.22;;;8.35;74.87
19594;BME280;9944;48.240;16.478;2024-02-23T07:35:09;98253.47;;;8.34;74.01
19594;BME280;9944;48.240;16.478;2024-02-23T07:39:12;98268.41;;;8.34;74.14
19594;BME280;9944;48.240;16.478;2024-02-23T07:43:16;98271.88;;;8.34;73.20
19594;BME280;9944;48.240;16.478;2024-02-23T07:47:20;98280.66;;;8.35;73.74
19594;BME280;9944;48.240;16.478;2024-02-23T07:51:24;98299.91;;;8.37;73.76
19594;BME280;9944;48.240;16.478;2024-02-23T07:55:27;98304.34;;;8.33;73.47
19594;BME280;9944;48.240;16.478;2024-02-23T07:59:30;98293.88;;;8.32;73.68
19594;BME280;9944;48.240;16.478;2024-02-23T08:03:36;98294.72;;;8.31;73.52
19594;BME280;9944;48.240;16.478;2024-02-23T08:07:43;98319.28;;;8.30;73.47
19594;BME280;9944;48.240;16.478;2024-02-23T08:11:47;98312.28;;;8.29;73.79
19594;BME280;9944;48.240;16.478;2024-02-23T08:15:51;98316.72;;;8.25;73.93
19594;BME280;9944;48.240;16.478;2024-02-23T08:19:56;98324.59;;;8.27;74.22
19594;BME280;9944;48.240;16.478;2024-02-23T08:23:59;98335.16;;;8.24;74.42
19594;BME280;9944;48.240;16.478;2024-02-23T08:28:03;98347.41;;;8.25;74.48
19594;BME280;9944;48.240;16.478;2024-02-23T08:32:08;98342.13;;;8.28;75.35
19594;BME280;9944;48.240;16.478;2024-02-23T08:36:13;98344.66;;;8.34;75.75
19594;BME280;9944;48.240;16.478;2024-02-23T08:40:17;98355.16;;;8.34;75.28
19594;BME280;9944;48.240;16.478;2024-02-23T08:44:20;98359.59;;;8.32;75.29
19594;BME280;9944;48.240;16.478;2024-02-23T08:48:23;98378.81;;;8.34;76.02
19594;BME280;9944;48.240;16.478;2024-02-23T08:52:28;98385.78;;;8.38;76.38
19594;BME280;9944;48.240;16.478;2024-02-23T08:56:36;98373.41;;;8.43;76.49
19594;BME280;9944;48.240;16.478;2024-02-23T09:00:40;98369.84;;;8.47;76.77
19594;BME280;9944;48.240;16.478;2024-02-23T09:04:43;98380.31;;;8.50;77.08
19594;BME280;9944;48.240;16.478;2024-02-23T09:08:49;98387.28;;;8.51;76.69
19594;BME280;9944;48.240;16.478;2024-02-23T09:12:52;98383.75;;;8.52;76.55
19594;BME280;9944;48.240;16.478;2024-02-23T09:16:56;98381.91;;;8.58;76.44
19594;BME280;9944;48.240;16.478;2024-02-23T09:20:59;98387.13;;;8.61;76.58
19594;BME280;9944;48.240;16.478;2024-02-23T09:25:05;98392.31;;;8.64;76.07
19594;BME280;9944;48.240;16.478;2024-02-23T09:29:09;98401.03;;;8.66;75.95
19594;BME280;9944;48.240;16.478;2024-02-23T09:33:12;98403.63;;;8.67;75.44
19594;BME280;9944;48.240;16.478;2024-02-23T09:37:16;98409.78;;;8.68;75.49
19594;BME280;9944;48.240;16.478;2024-02-23T09:41:22;98409.72;;;8.71;75.21
19594;BME280;9944;48.240;16.478;2024-02-23T09:45:27;98420.22;;;8.71;74.85
19594;BME280;9944;48.240;16.478;2024-02-23T09:49:31;98429.81;;;8.75;74.43
19594;BME280;9944;48.240;16.478;2024-02-23T09:53:37;98422.72;;;8.80;74.30
19594;BME280;9944;48.240;16.478;2024-02-23T09:57:42;98423.53;;;8.82;74.11
19594;BME280;9944;48.240;16.478;2024-02-23T10:01:45;98422.66;;;8.83;74.20
19594;BME280;9944;48.240;16.478;2024-02-23T10:05:49;98421.69;;;8.87;74.08
19594;BME280;9944;48.240;16.478;2024-02-23T10:09:53;98417.25;;;8.91;74.45
19594;BME280;9944;48.240;16.478;2024-02-23T10:13:59;98409.28;;;8.94;73.93
19594;BME280;9944;48.240;16.478;2024-02-23T10:18:03;98399.56;;;8.98;74.53
19594;BME280;9944;48.240;16.478;2024-02-23T10:22:07;98381.00;;;9.04;74.69
19594;BME280;9944;48.240;16.478;2024-02-23T10:26:10;98381.78;;;9.09;74.73
19594;BME280;9944;48.240;16.478;2024-02-23T10:30:15;98384.31;;;9.14;74.89
19594;BME280;9944;48.240;16.478;2024-02-23T10:34:19;98370.22;;;9.16;74.58
19594;BME280;9944;48.240;16.478;2024-02-23T10:38:23;98377.16;;;9.20;74.84
19594;BME280;9944;48.240;16.478;2024-02-23T10:42:33;98375.31;;;9.25;74.95
19594;BME280;9944;48.240;16.478;2024-02-23T10:46:39;98368.16;;;9.30;74.83
19594;BME280;9944;48.240;16.478;2024-02-23T10:50:43;98368.03;;;9.37;74.74
19594;BME280;9944;48.240;16.478;2024-02-23T10:54:47;98355.72;;;9.39;74.32
19594;BME280;9944;48.240;16.478;2024-02-23T10:58:52;98357.41;;;9.41;73.96
19594;BME280;9944;48.240;16.478;2024-02-23T11:02:57;98338.25;;;9.33;72.65
19594;BME280;9944;48.240;16.478;2024-02-23T11:07:01;98343.66;;;9.28;72.77
19594;BME280;9944;48.240;16.478;2024-02-23T11:11:11;98347.28;;;9.21;72.46
19594;BME280;9944;48.240;16.478;2024-02-23T11:15:26;98348.13;;;9.25;73.06
19594;BME280;9944;48.240;16.478;2024-02-23T11:19:34;98345.38;;;9.28;73.43
19594;BME280;9944;48.240;16.478;2024-02-23T11:23:40;98332.13;;;9.33;73.43
19594;BME280;9944;48.240;16.478;2024-02-23T11:27:49;98341.72;;;9.35;73.42
19594;BME280;9944;48.240;16.478;2024-02-23T11:31:54;98339.09;;;9.35;73.39
19594;BME280;9944;48.240;16.478;2024-02-23T11:36:08;98351.38;;;9.35;73.13
19594;BME280;9944;48.240;16.478;2024-02-23T11:40:12;98352.38;;;9.30;73.23
19594;BME280;9944;48.240;16.478;2024-02-23T11:44:17;98349.78;;;9.27;73.22
19594;BME280;9944;48.240;16.478;2024-02-23T11:48:20;98341.09;;;9.24;73.49
19594;BME280;9944;48.240;16.478;2024-02-23T11:52:27;98331.69;;;9.12;73.51
19594;BME280;9944;48.240;16.478;2024-02-23T11:56:30;98332.69;;;9.08;74.02
19594;BME280;9944;48.240;16.478;2024-02-23T12:00:34;98333.59;;;9.05;74.16
19594;BME280;9944;48.240;16.478;2024-02-23T12:04:39;98323.09;;;9.04;74.44
19594;BME280;9944;48.240;16.478;2024-02-23T12:08:44;98312.66;;;9.01;74.02
19594;BME280;9944;48.240;16.478;2024-02-23T12:12:49;98306.63;;;8.96;74.57
19594;BME280;9944;48.240;16.478;2024-02-23T12:16:53;98311.88;;;8.96;74.80
19594;BME280;9944;48.240;16.478;2024-02-23T12:20:59;98300.44;;;8.97;74.98
19594;BME280;9944;48.240;16.478;2024-02-23T12:25:06;98298.72;;;8.96;74.68
19594;BME280;9944;48.240;16.478;2024-02-23T12:29:09;98303.06;;;8.97;75.00
19594;BME280;9944;48.240;16.478;2024-02-23T12:33:15;98304.78;;;8.99;75.31
19594;BME280;9944;48.240;16.478;2024-02-23T12:37:21;98286.44;;;8.96;74.66
19594;BME280;9944;48.240;16.478;2024-02-23T12:41:26;98276.13;;;8.85;74.16
19594;BME280;9944;48.240;16.478;2024-02-23T12:45:30;98270.03;;;8.83;74.87
19594;BME280;9944;48.240;16.478;2024-02-23T12:49:33;98256.91;;;8.82;74.68
19594;BME280;9944;48.240;16.478;2024-02-23T12:53:38;98264.00;;;8.78;74.78
19594;BME280;9944;48.240;16.478;2024-02-23T12:57:43;98269.19;;;8.81;74.68
19594;BME280;9944;48.240;16.478;2024-02-23T13:01:46;98255.88;;;8.89;75.12
19594;BME280;9944;48.240;16.478;2024-02-23T13:05:54;98269.03;;;8.89;74.81
19594;BME280;9944;48.240;16.478;2024-02-23T13:09:58;98266.50;;;8.84;75.09
19594;BME280;9944;48.240;16.478;2024-02-23T13:14:03;98253.41;;;8.81;74.77
19594;BME280;9944;48.240;16.478;2024-02-23T13:18:07;98249.28;;;8.69;74.81
19594;BME280;9944;48.240;16.478;2024-02-23T13:22:11;98239.84;;;8.59;74.60
19594;BME280;9944;48.240;16.478;2024-02-23T13:26:14;98239.94;;;8.54;75.26
19594;BME280;9944;48.240;16.478;2024-02-23T13:30:19;98246.03;;;8.57;75.34
19594;BME280;9944;48.240;16.478;2024-02-23T13:34:23;98238.13;;;8.57;75.84
19594;BME280;9944;48.240;16.478;2024-02-23T13:38:26;98233.75;;;8.57;76.06
19594;BME280;9944;48.240;16.478;2024-02-23T13:42:30;98233.69;;;8.60;76.58
19594;BME280;9944;48.240;16.478;2024-02-23T13:46:38;98228.44;;;8.59;76.27
19594;BME280;9944;48.240;16.478;2024-02-23T13:50:42;98218.91;;;8.54;76.38
19594;BME280;9944;48.240;16.478;2024-02-23T13:54:45;98206.78;;;8.47;76.16
19594;BME280;9944;48.240;16.478;2024-02-23T13:58:48;98199.94;;;8.40;76.11
19594;BME280;9944;48.240;16.478;2024-02-23T14:02:53;98189.47;;;8.37;76.63
19594;BME280;9944;48.240;16.478;2024-02-23T14:06:57;98179.00;;;8.34;76.88
19594;BME280;9944;48.240;16.478;2024-02-23T14:11:01;98187.72;;;8.36;77.76
19594;BME280;9944;48.240;16.478;2024-02-23T14:15:05;98185.19;;;8.33;77.52
19594;BME280;9944;48.240;16.478;2024-02-23T14:19:11;98172.06;;;8.30;77.88
19594;BME280;9944;48.240;16.478;2024-02-23T14:23:14;98173.88;;;8.28;78.03
19594;BME280;9944;48.240;16.478;2024-02-23T14:27:18;98160.75;;;8.26;78.29
19594;BME280;9944;48.240;16.478;2024-02-23T14:31:22;98151.09;;;8.27;78.71
19594;BME280;9944;48.240;16.478;2024-02-23T14:35:26;98152.84;;;8.28;78.81
19594;BME280;9944;48.240;16.478;2024-02-23T14:39:30;98157.19;;;8.27;78.99
19594;BME280;9944;48.240;16.478;2024-02-23T14:43:33;98151.91;;;8.29;79.32
19594;BME280;9944;48.240;16.478;2024-02-23T14:47:37;98157.16;;;8.30;79.65
19594;BME280;9944;48.240;16.478;2024-02-23T14:51:48;98153.56;;;8.34;79.57
19594;BME280;9944;48.240;16.478;2024-02-23T14:55:52;98142.19;;;8.34;80.05
19594;BME280;9944;48.240;16.478;2024-02-23T14:59:55;98139.53;;;8.35;80.33
19594;BME280;9944;48.240;16.478;2024-02-23T15:03:59;98143.00;;;8.38;80.34
19594;BME280;9944;48.240;16.478;2024-02-23T15:08:05;98145.59;;;8.39;80.49
19594;BME280;9944;48.240;16.478;2024-02-23T15:12:10;98149.09;;;8.40;80.34
19594;BME280;9944;48.240;16.478;2024-02-23T15:16:14;98139.47;;;8.39;80.19
19594;BME280;9944;48.240;16.478;2024-02-23T15:20:18;98128.13;;;8.38;80.16
19594;BME280;9944;48.240;16.478;2024-02-23T15:24:23;98110.59;;;8.37;80.17
19594;BME280;9944;48.240;16.478;2024-02-23T15:28:27;98106.19;;;8.38;80.25
19594;BME280;9944;48.240;16.478;2024-02-23T15:32:30;98112.41;;;8.35;80.64
19594;BME280;9944;48.240;16.478;2024-02-23T15:36:34;98110.66;;;8.34;80.41
19594;BME280;9944;48.240;16.478;2024-02-23T15:40:39;98112.41;;;8.35;80.39
19594;BME280;9944;48.240;16.478;2024-02-23T15:44:43;98108.84;;;8.36;80.38
19594;BME280;9944;48.240;16.478;2024-02-23T15:48:47;98096.63;;;8.35;80.66
19594;BME280;9944;48.240;16.478;2024-02-23T15:52:51;98103.59;;;8.36;80.74
19594;BME280;9944;48.240;16.478;2024-02-23T15:56:56;98101.81;;;8.38;80.67
19594;BME280;9944;48.240;16.478;2024-02-23T16:00:59;98100.00;;;8.40;79.97
19594;BME280;9944;48.240;16.478;2024-02-23T16:05:03;98103.50;;;8.41;79.77
19594;BME280;9944;48.240;16.478;2024-02-23T16:09:09;98096.47;;;8.41;79.77
19594;BME280;9944;48.240;16.478;2024-02-23T16:13:18;98096.34;;;8.47;80.23
19594;BME280;9944;48.240;16.478;2024-02-23T16:17:22;98098.91;;;8.50;80.28
19594;BME280;9944;48.240;16.478;2024-02-23T16:21:25;98091.03;;;8.50;80.03
19594;BME280;9944;48.240;16.478;2024-02-23T16:25:29;98085.75;;;8.50;80.02
19594;BME280;9944;48.240;16.478;2024-02-23T16:29:34;98083.22;;;8.46;79.99
19594;BME280;9944;48.240;16.478;2024-02-23T16:33:38;98091.22;;;8.41;79.53
19594;BME280;9944;48.240;16.478;2024-02-23T16:37:41;98087.69;;;8.42;79.80
19594;BME280;9944;48.240;16.478;2024-02-23T16:41:45;98089.53;;;8.39;79.81
19594;BME280;9944;48.240;16.478;2024-02-23T16:45:50;98086.09;;;8.35;79.86
19594;BME280;9944;48.240;16.478;2024-02-23T16:49:53;98066.78;;;8.36;79.91
19594;BME280;9944;48.240;16.478;2024-02-23T16:53:57;98072.91;;;8.38;80.16
19594;BME280;9944;48.240;16.478;2024-02-23T16:58:00;98068.53;;;8.37;79.58
19594;BME280;9944;48.240;16.478;2024-02-23T17:02:06;98073.84;;;8.34;79.73
19594;BME280;9944;48.240;16.478;2024-02-23T17:06:09;98054.56;;;8.35;79.79
19594;BME280;9944;48.240;16.478;2024-02-23T17:10:13;98054.56;;;8.35;79.70
19594;BME280;9944;48.240;16.478;2024-02-23T17:14:18;98056.31;;;8.34;79.80
19594;BME280;9944;48.240;16.478;2024-02-23T17:18:23;98036.16;;;8.35;79.90
19594;BME280;9944;48.240;16.478;2024-02-23T17:22:27;98034.28;;;8.40;79.50
19594;BME280;9944;48.240;16.478;2024-02-23T17:26:30;98025.59;;;8.36;79.52
19594;BME280;9944;48.240;16.478;2024-02-23T17:30:34;98018.59;;;8.35;79.56
19594;BME280;9944;48.240;16.478;2024-02-23T17:34:39;98024.75;;;8.34;79.76
19594;BME280;9944;48.240;16.478;2024-02-23T17:38:42;98019.56;;;8.33;79.81
19594;BME280;9944;48.240;16.478;2024-02-23T17:42:46;98011.59;;;8.34;80.14
19594;BME280;9944;48.240;16.478;2024-02-23T17:46:49;98009.94;;;8.32;79.64
19594;BME280;9944;48.240;16.478;2024-02-23T17:50:54;98014.34;;;8.30;79.94
19594;BME280;9944;48.240;16.478;2024-02-23T17:54:58;98002.91;;;8.32;80.31
19594;BME280;9944;48.240;16.478;2024-02-23T17:59:01;97990.66;;;8.31;80.08
19594;BME280;9944;48.240;16.478;2024-02-23T18:03:06;98000.28;;;8.32;80.13
19594;BME280;9944;48.240;16.478;2024-02-23T18:07:11;97998.53;;;8.33;80.25
19594;BME280;9944;48.240;16.478;2024-02-23T18:11:14;97975.69;;;8.35;80.20
19594;BME280;9944;48.240;16.478;2024-02-23T18:15:18;97983.53;;;8.36;80.12
19594;BME280;9944;48.240;16.478;2024-02-23T18:19:21;97983.50;;;8.38;80.31
19594;BME280;9944;48.240;16.478;2024-02-23T18:23:27;97985.22;;;8.39;80.38
19594;BME280;9944;48.240;16.478;2024-02-23T18:27:30;97983.41;;;8.41;80.49
19594;BME280;9944;48.240;16.478;2024-02-23T18:31:34;97978.13;;;8.43;80.54
19594;BME280;9944;48.240;16.478;2024-02-23T18:35:37;97977.19;;;8.45;80.30
19594;BME280;9944;48.240;16.478;2024-02-23T18:39:42;97977.06;;;8.50;80.33
19594;BME280;9944;48.240;16.478;2024-02-23T18:43:46;97977.84;;;8.53;80.15
19594;BME280;9944;48.240;16.478;2024-02-23T18:47:49;97975.22;;;8.53;80.10
19594;BME280;9944;48.240;16.478;2024-02-23T18:51:53;97986.59;;;8.55;80.34
19594;BME280;9944;48.240;16.478;2024-02-23T18:55:58;97991.00;;;8.53;79.96
19594;BME280;9944;48.240;16.478;2024-02-23T19:00:02;97991.00;;;8.53;80.00
19594;BME280;9944;48.240;16.478;2024-02-23T19:04:06;97999.81;;;8.52;79.78
19594;BME280;9944;48.240;16.478;2024-02-23T19:08:10;97994.47;;;8.55;79.36
19594;BME280;9944;48.240;16.478;2024-02-23T19:12:15;98005.78;;;8.59;79.46
19594;BME280;9944;48.240;16.478;2024-02-23T19:16:18;98007.41;;;8.63;79.30
19594;BME280;9944;48.240;16.478;2024-02-23T19:20:22;98011.66;;;8.69;78.69
19594;BME280;9944;48.240;16.478;2024-02-23T19:24:26;98009.81;;;8.72;77.86
19594;BME280;9944;48.240;16.478;2024-02-23T19:28:34;98015.03;;;8.74;77.46
19594;BME280;9944;48.240;16.478;2024-02-23T19:32:37;98014.97;;;8.77;77.84
19594;BME280;9944;48.240;16.478;2024-02-23T19:36:41;98012.22;;;8.82;78.21
19594;BME280;9944;48.240;16.478;2024-02-23T19:40:44;98024.47;;;8.83;77.57
19594;BME280;9944;48.240;16.478;2024-02-23T19:44:50;98030.22;;;8.63;76.40
19594;BME280;9944;48.240;16.478;2024-02-23T19:48:54;98043.06;;;8.39;75.44
19594;BME280;9944;48.240;16.478;2024-02-23T19:52:59;98042.66;;;8.15;74.72
19594;BME280;9944;48.240;16.478;2024-02-23T19:57:03;98025.63;;;7.94;74.27
19594;BME280;9944;48.240;16.478;2024-02-23T20:01:07;98044.41;;;7.77;74.48
19594;BME280;9944;48.240;16.478;2024-02-23T20:05:12;98062.13;;;7.66;74.15
19594;BME280;9944;48.240;16.478;2024-02-23T20:09:15;98070.25;;;7.54;74.19
19594;BME280;9944;48.240;16.478;2024-02-23T20:13:19;98068.69;;;7.43;74.07
19594;BME280;9944;48.240;16.478;2024-02-23T20:17:24;98063.84;;;7.22;72.48
19594;BME280;9944;48.240;16.478;2024-02-23T20:21:27;98060.72;;;7.01;72.60
19594;BME280;9944;48.240;16.478;2024-02-23T20:25:34;98075.00;;;6.83;72.82
19594;BME280;9944;48.240;16.478;2024-02-23T20:29:37;98082.22;;;6.71;72.45
19594;BME280;9944;48.240;16.478;2024-02-23T20:33:42;98091.22;;;6.54;72.52
19594;BME280;9944;48.240;16.478;2024-02-23T20:37:47;98084.41;;;6.38;72.43
19594;BME280;9944;48.240;16.478;2024-02-23T20:41:51;98094.28;;;6.20;72.58
19594;BME280;9944;48.240;16.478;2024-02-23T20:45:54;98109.31;;;6.06;72.79
19594;BME280;9944;48.240;16.478;2024-02-23T20:50:00;98104.19;;;5.97;73.05
19594;BME280;9944;48.240;16.478;2024-02-23T20:54:04;98114.78;;;5.87;73.11
19594;BME280;9944;48.240;16.478;2024-02-23T20:58:21;98112.25;;;5.81;73.24
19594;BME280;9944;48.240;16.478;2024-02-23T21:02:25;98115.75;;;5.79;73.31
19594;BME280;9944;48.240;16.478;2024-02-23T21:06:30;98120.19;;;5.72;73.11
19594;BME280;9944;48.240;16.478;2024-02-23T21:10:33;98130.75;;;5.66;72.47
19594;BME280;9944;48.240;16.478;2024-02-23T21:14:37;98104.66;;;5.55;72.59
19594;BME280;9944;48.240;16.478;2024-02-23T21:18:40;98137.91;;;5.48;72.25
19594;BME280;9944;48.240;16.478;2024-02-23T21:29:08;98139.78;;;5.35;72.75
19594;BME280;9944;48.240;16.478;2024-02-23T21:33:12;98139.78;;;5.34;72.71
19594;BME280;9944;48.240;16.478;2024-02-23T21:37:15;98149.47;;;5.26;72.61
19594;BME280;9944;48.240;16.478;2024-02-23T21:41:20;98160.81;;;5.22;73.03
19594;BME280;9944;48.240;16.478;2024-02-23T21:45:25;98153.91;;;5.14;73.03
19594;BME280;9944;48.240;16.478;2024-02-23T21:49:28;98152.25;;;5.07;73.53
19594;BME280;9944;48.240;16.478;2024-02-23T21:53:31;98147.94;;;5.02;73.79
19594;BME280;9944;48.240;16.478;2024-02-23T21:57:35;98162.78;;;4.98;74.36